Terminal Aerodrome Forecast
Issued by NWS

Home | Current Version | Previous Version | Text Only | Print | Product List | Glossary On
Versions: 1 2 3 4 5 6 7 8 9 10 11 12 13 14 15 16 17 18 19
209
FTPA31 PHFO 212340
TAFHKO
TAF
PHKO 212340Z 2200/2224 24010KT P6SM OVC050
     FM220200 32010KT P6SM BKN050
     FM220600 24005KT P6SM FEW050
     FM221900 06010KT P6SM BKN040=

USA.gov is the U.S. government's official web portal to all federal, state and local government web resources and services.